Time,TemperatureF,DewpointF,PressureIn,WindDirection,WindDirectionDegrees,WindSpeedMPH,WindSpeedGustMPH,Humidity,HourlyPrecipIn,Conditions,Clouds,dailyrainin,SoftwareType,DateUTC
2013-06-15 00:07:00,61.7,61.4,29.96,NNW,337,3.2,-999.0,99,-99.99,,,0.00,Acu-Link.com,2013-06-15 04:07:00,
2013-06-15 00:22:00,62.8,62.5,29.96,NW,315,4.7,-999.0,99,-99.99,,,0.00,Acu-Link.com,2013-06-15 04:22:00,
2013-06-15 00:38:00,63.1,62.8,29.96,NNW,337,4.2,-999.0,99,-99.99,,,0.00,Acu-Link.com,2013-06-15 04:38:00,
2013-06-15 00:53:00,63.0,62.7,29.96,NNW,337,3.7,-999.0,99,-99.99,,,0.00,Acu-Link.com,2013-06-15 04:53:00,
2013-06-15 01:08:00,62.6,62.3,29.96,WNW,292,2.7,-999.0,99,-99.99,,,0.00,Acu-Link.com,2013-06-15 05:08:00,
2013-06-15 01:24:00,61.2,60.9,29.98,South,180,0.0,-999.0,99,-99.99,,,0.00,Acu-Link.com,2013-06-15 05:24:00,
2013-06-15 01:39:00,60.3,60.0,29.97,West,270,0.0,-999.0,99,-99.99,,,0.00,Acu-Link.com,2013-06-15 05:39:00,
2013-06-15 01:54:00,59.5,59.2,29.98,WNW,292,0.0,-999.0,99,-99.99,,,0.00,Acu-Link.com,2013-06-15 05:54:00,
2013-06-15 02:10:00,58.6,58.3,29.98,WNW,292,0.0,-999.0,99,-99.99,,,0.00,Acu-Link.com,2013-06-15 06:10:00,
2013-06-15 02:25:00,58.1,57.8,29.98,SW,225,0.0,-999.0,99,-99.99,,,0.00,Acu-Link.com,2013-06-15 06:25:00,
2013-06-15 02:40:00,58.1,57.8,29.98,WNW,292,0.0,-999.0,99,-99.99,,,0.00,Acu-Link.com,2013-06-15 06:40:00,
2013-06-15 02:55:00,57.9,57.6,29.98,WNW,292,2.2,-999.0,99,-99.99,,,0.00,Acu-Link.com,2013-06-15 06:55:00,
2013-06-15 03:10:00,57.0,56.7,29.97,WNW,292,2.2,-999.0,99,-99.99,,,0.00,Acu-Link.com,2013-06-15 07:10:00,
2013-06-15 03:26:00,56.7,56.4,29.97,WNW,292,2.2,-999.0,99,-99.99,,,0.00,Acu-Link.com,2013-06-15 07:26:00,
2013-06-15 03:41:00,56.8,56.5,29.97,NW,315,0.0,-999.0,99,-99.99,,,0.00,Acu-Link.com,2013-06-15 07:41:00,
2013-06-15 03:56:00,56.8,56.5,29.97,NW,315,1.7,-999.0,99,-99.99,,,0.00,Acu-Link.com,2013-06-15 07:56:00,
2013-06-15 04:12:00,56.8,56.5,29.99,WNW,292,2.2,-999.0,99,-99.99,,,0.00,Acu-Link.com,2013-06-15 08:12:00,
2013-06-15 04:27:00,57.0,56.7,29.98,WNW,292,2.2,-999.0,99,-99.99,,,0.00,Acu-Link.com,2013-06-15 08:27:00,
2013-06-15 04:42:00,57.0,56.7,29.98,NW,315,1.7,-999.0,99,-99.99,,,0.00,Acu-Link.com,2013-06-15 08:42:00,
2013-06-15 04:57:00,57.0,56.7,29.99,WNW,292,2.7,-999.0,99,-99.99,,,0.00,Acu-Link.com,2013-06-15 08:57:00,
2013-06-15 05:12:00,56.3,56.0,29.99,WNW,292,2.7,-999.0,99,-99.99,,,0.00,Acu-Link.com,2013-06-15 09:12:00,
2013-06-15 05:27:00,56.1,55.8,30.00,WNW,292,2.2,-999.0,99,-99.99,,,0.00,Acu-Link.com,2013-06-15 09:27:00,
2013-06-15 05:43:00,55.9,55.6,30.02,WNW,292,2.7,-999.0,99,-99.99,,,0.00,Acu-Link.com,2013-06-15 09:43:00,
2013-06-15 05:58:00,55.8,55.5,30.03,WNW,292,3.2,-999.0,99,-99.99,,,0.00,Acu-Link.com,2013-06-15 09:58:00,
2013-06-15 06:13:00,55.6,55.3,30.02,WNW,292,2.7,-999.0,99,-99.99,,,0.00,Acu-Link.com,2013-06-15 10:13:00,
2013-06-15 06:28:00,55.6,55.3,30.03,WNW,292,2.7,-999.0,99,-99.99,,,0.00,Acu-Link.com,2013-06-15 10:28:00,
2013-06-15 06:43:00,55.6,55.3,30.02,WNW,292,2.7,-999.0,99,-99.99,,,0.00,Acu-Link.com,2013-06-15 10:43:00,
2013-06-15 06:58:00,55.9,55.6,30.03,WNW,292,2.7,-999.0,99,-99.99,,,0.00,Acu-Link.com,2013-06-15 10:58:00,
2013-06-15 07:14:00,56.1,55.8,30.03,WNW,292,2.7,-999.0,99,-99.99,,,0.00,Acu-Link.com,2013-06-15 11:14:00,
2013-06-15 07:29:00,56.1,55.8,30.04,WNW,292,3.2,-999.0,99,-99.99,,,0.00,Acu-Link.com,2013-06-15 11:29:00,
2013-06-15 07:44:00,56.7,56.4,30.04,WNW,292,2.7,-999.0,99,-99.99,,,0.00,Acu-Link.com,2013-06-15 11:44:00,
2013-06-15 07:59:00,60.4,60.1,30.05,NW,315,2.2,-999.0,99,-99.99,,,0.00,Acu-Link.com,2013-06-15 11:59:00,
2013-06-15 08:15:00,63.5,63.2,30.06,NW,315,2.7,-999.0,99,-99.99,,,0.00,Acu-Link.com,2013-06-15 12:15:00,
2013-06-15 08:30:00,66.0,65.7,30.05,NNW,337,1.1,-999.0,99,-99.99,,,0.00,Acu-Link.com,2013-06-15 12:30:00,
2013-06-15 08:45:00,72.7,72.4,30.05,NNW,337,0.0,-999.0,99,-99.99,,,0.00,Acu-Link.com,2013-06-15 12:45:00,
2013-06-15 09:00:00,74.1,73.8,30.06,NW,315,0.0,-999.0,99,-99.99,,,0.00,Acu-Link.com,2013-06-15 13:00:00,
2013-06-15 09:16:00,75.0,74.7,30.06,NNE,22,1.7,-999.0,99,-99.99,,,0.00,Acu-Link.com,2013-06-15 13:16:00,
2013-06-15 09:31:00,70.5,70.2,30.06,NNW,337,2.2,-999.0,99,-99.99,,,0.00,Acu-Link.com,2013-06-15 13:31:00,
2013-06-15 09:46:00,71.8,71.5,30.06,East,90,2.2,-999.0,99,-99.99,,,0.00,Acu-Link.com,2013-06-15 13:46:00,
2013-06-15 10:02:00,72.7,72.4,30.07,WNW,292,1.1,-999.0,99,-99.99,,,0.00,Acu-Link.com,2013-06-15 14:02:00,
2013-06-15 10:17:00,73.6,73.3,30.05,ENE,67,1.7,-999.0,99,-99.99,,,0.00,Acu-Link.com,2013-06-15 14:17:00,
2013-06-15 10:32:00,75.9,75.6,30.06,NNE,22,2.2,-999.0,99,-99.99,,,0.00,Acu-Link.com,2013-06-15 14:32:00,
2013-06-15 10:47:00,75.6,75.3,30.05,West,270,2.7,-999.0,99,-99.99,,,0.00,Acu-Link.com,2013-06-15 14:47:00,
2013-06-15 11:03:00,76.1,75.8,30.05,SE,135,1.7,-999.0,99,-99.99,,,0.00,Acu-Link.com,2013-06-15 15:03:00,
2013-06-15 11:18:00,77.0,76.7,30.04,ENE,67,3.2,-999.0,99,-99.99,,,0.00,Acu-Link.com,2013-06-15 15:18:00,
2013-06-15 11:33:00,77.2,76.9,30.04,WNW,292,1.7,-999.0,99,-99.99,,,0.00,Acu-Link.com,2013-06-15 15:33:00,
2013-06-15 11:48:00,78.1,77.8,30.05,South,180,2.7,-999.0,99,-99.99,,,0.00,Acu-Link.com,2013-06-15 15:48:00,
2013-06-15 12:04:00,78.4,78.1,30.03,SSE,157,2.7,-999.0,99,-99.99,,,0.00,Acu-Link.com,2013-06-15 16:04:00,
2013-06-15 12:19:00,79.3,79.0,30.03,SE,135,2.7,-999.0,99,-99.99,,,0.00,Acu-Link.com,2013-06-15 16:19:00,
2013-06-15 12:34:00,81.9,81.6,30.03,ESE,112,3.2,-999.0,99,-99.99,,,0.00,Acu-Link.com,2013-06-15 16:34:00,
2013-06-15 12:49:00,80.4,80.1,30.03,NW,315,3.2,-999.0,99,-99.99,,,0.00,Acu-Link.com,2013-06-15 16:49:00,
2013-06-15 13:05:00,79.0,78.7,30.03,SSE,157,4.7,-999.0,99,-99.99,,,0.00,Acu-Link.com,2013-06-15 17:05:00,
2013-06-15 13:20:00,79.0,78.7,30.02,WNW,292,1.7,-999.0,99,-99.99,,,0.00,Acu-Link.com,2013-06-15 17:20:00,
2013-06-15 13:35:00,81.9,81.6,30.02,ESE,112,3.2,-999.0,99,-99.99,,,0.00,Acu-Link.com,2013-06-15 17:35:00,
2013-06-15 13:51:00,81.0,80.7,30.01,ESE,112,2.7,-999.0,99,-99.99,,,0.00,Acu-Link.com,2013-06-15 17:51:00,
2013-06-15 14:06:00,78.4,78.1,30.00,NNE,22,0.0,-999.0,99,-99.99,,,0.00,Acu-Link.com,2013-06-15 18:06:00,
2013-06-15 14:21:00,81.5,81.2,30.00,West,270,2.2,-999.0,99,-99.99,,,0.00,Acu-Link.com,2013-06-15 18:21:00,
2013-06-15 14:36:00,75.6,75.3,30.01,WSW,247,1.7,-999.0,99,-99.99,,,0.00,Acu-Link.com,2013-06-15 18:36:00,
2013-06-15 14:52:00,75.2,74.9,30.00,ENE,67,0.0,-999.0,99,-99.99,,,0.00,Acu-Link.com,2013-06-15 18:52:00,
2013-06-15 15:07:00,78.3,78.0,30.00,West,270,0.0,-999.0,99,-99.99,,,0.00,Acu-Link.com,2013-06-15 19:07:00,
2013-06-15 15:23:00,75.9,75.6,30.00,South,180,1.1,-999.0,99,-99.99,,,0.00,Acu-Link.com,2013-06-15 19:23:00,
2013-06-15 15:38:00,79.5,79.2,29.99,ESE,112,4.7,-999.0,99,-99.99,,,0.00,Acu-Link.com,2013-06-15 19:38:00,
2013-06-15 15:53:00,77.7,77.4,29.99,SSE,157,4.7,-999.0,99,-99.99,,,0.00,Acu-Link.com,2013-06-15 19:53:00,
2013-06-15 16:08:00,77.4,77.1,29.99,SSW,202,1.7,-999.0,99,-99.99,,,0.00,Acu-Link.com,2013-06-15 20:08:00,
2013-06-15 16:23:00,78.4,78.1,30.00,South,180,2.7,-999.0,99,-99.99,,,0.00,Acu-Link.com,2013-06-15 20:23:00,
2013-06-15 16:39:00,78.3,78.0,29.99,South,180,1.7,-999.0,99,-99.99,,,0.00,Acu-Link.com,2013-06-15 20:39:00,
2013-06-15 16:54:00,77.2,76.9,30.00,ESE,112,2.2,-999.0,99,-99.99,,,0.00,Acu-Link.com,2013-06-15 20:54:00,
2013-06-15 17:09:00,76.6,76.3,29.99,SSE,157,1.7,-999.0,99,-99.99,,,0.00,Acu-Link.com,2013-06-15 21:09:00,
2013-06-15 17:25:00,77.9,77.6,29.98,SE,135,0.0,-999.0,99,-99.99,,,0.00,Acu-Link.com,2013-06-15 21:25:00,
2013-06-15 17:40:00,76.3,76.0,29.97,ESE,112,2.7,-999.0,99,-99.99,,,0.00,Acu-Link.com,2013-06-15 21:40:00,
2013-06-15 17:55:00,75.0,74.7,29.97,SSW,202,1.1,-999.0,99,-99.99,,,0.00,Acu-Link.com,2013-06-15 21:55:00,
2013-06-15 18:11:00,76.1,75.8,29.96,ESE,112,3.2,-999.0,99,-99.99,,,0.00,Acu-Link.com,2013-06-15 22:11:00,
2013-06-15 18:26:00,77.0,76.7,29.97,ESE,112,0.0,-999.0,99,-99.99,,,0.00,Acu-Link.com,2013-06-15 22:26:00,
2013-06-15 18:41:00,78.6,78.3,29.97,SSW,202,0.0,-999.0,99,-99.99,,,0.00,Acu-Link.com,2013-06-15 22:41:00,
2013-06-15 18:56:00,77.7,77.4,29.98,NNW,337,2.7,-999.0,99,-99.99,,,0.00,Acu-Link.com,2013-06-15 22:56:00,
2013-06-15 19:12:00,73.9,73.6,29.97,SSE,157,2.7,-999.0,99,-99.99,,,0.00,Acu-Link.com,2013-06-15 23:12:00,
2013-06-15 19:27:00,73.2,72.9,29.99,WSW,247,4.2,-999.0,99,-99.99,,,0.00,Acu-Link.com,2013-06-15 23:27:00,
2013-06-15 19:42:00,72.1,71.8,29.98,ESE,112,3.7,-999.0,99,-99.99,,,0.00,Acu-Link.com,2013-06-15 23:42:00,
2013-06-15 19:57:00,70.7,70.4,29.98,East,90,1.1,-999.0,99,-99.99,,,0.00,Acu-Link.com,2013-06-15 23:57:00,
2013-06-15 20:13:00,69.8,69.5,29.99,NNW,337,0.0,-999.0,99,-99.99,,,0.00,Acu-Link.com,2013-06-16 00:13:00,
2013-06-15 20:28:00,68.9,68.6,29.98,WSW,247,3.2,-999.0,99,-99.99,,,0.00,Acu-Link.com,2013-06-16 00:28:00,
2013-06-15 20:43:00,68.0,67.7,29.97,South,180,3.2,-999.0,99,-99.99,,,0.00,Acu-Link.com,2013-06-16 00:43:00,
2013-06-15 20:59:00,67.3,67.0,29.97,SSW,202,2.7,-999.0,99,-99.99,,,0.00,Acu-Link.com,2013-06-16 00:59:00,
2013-06-15 21:14:00,66.9,66.6,29.98,WSW,247,4.2,-999.0,99,-99.99,,,0.00,Acu-Link.com,2013-06-16 01:14:00,
2013-06-15 21:29:00,66.7,66.4,29.98,West,270,3.2,-999.0,99,-99.99,,,0.00,Acu-Link.com,2013-06-16 01:29:00,
2013-06-15 21:44:00,66.2,65.9,29.99,NW,315,1.7,-999.0,99,-99.99,,,0.00,Acu-Link.com,2013-06-16 01:44:00,
2013-06-15 22:00:00,65.8,65.5,29.99,West,270,0.0,-999.0,99,-99.99,,,0.00,Acu-Link.com,2013-06-16 02:00:00,
2013-06-15 22:15:00,65.8,65.5,30.00,SSE,157,3.2,-999.0,99,-99.99,,,0.00,Acu-Link.com,2013-06-16 02:15:00,
2013-06-15 22:30:00,65.7,65.4,30.01,East,90,2.7,-999.0,99,-99.99,,,0.00,Acu-Link.com,2013-06-16 02:30:00,
2013-06-15 22:46:00,64.9,64.6,30.01,East,90,2.2,-999.0,99,-99.99,,,0.00,Acu-Link.com,2013-06-16 02:46:00,
2013-06-15 23:01:00,64.6,64.3,30.01,NE,45,2.2,-999.0,99,-99.99,,,0.00,Acu-Link.com,2013-06-16 03:01:00,
2013-06-15 23:16:00,64.0,63.7,30.02,SW,225,1.1,-999.0,99,-99.99,,,0.00,Acu-Link.com,2013-06-16 03:16:00,
2013-06-15 23:31:00,63.3,63.0,30.02,West,270,0.0,-999.0,99,-99.99,,,0.00,Acu-Link.com,2013-06-16 03:31:00,
2013-06-15 23:47:00,63.0,62.7,30.02,WNW,292,0.0,-999.0,99,-99.99,,,0.00,Acu-Link.com,2013-06-16 03:47:00,